createdAt,value
2018-10-16T00:09:19.594Z,99.90
2018-10-16T00:19:27.493Z,99.90
2018-10-16T01:05:02.196Z,99.90
2018-10-16T01:15:11.719Z,99.90
2018-10-16T01:20:15.798Z,99.90
2018-10-16T01:25:19.943Z,99.90
2018-10-16T01:35:27.851Z,99.90
2018-10-16T01:45:35.718Z,99.90
2018-10-16T01:50:39.777Z,99.90
2018-10-16T02:00:47.751Z,99.90
2018-10-16T02:05:51.976Z,99.90
2018-10-16T02:21:03.665Z,99.90
2018-10-16T02:26:08.154Z,99.90
2018-10-16T02:31:12.256Z,99.90
2018-10-16T02:36:16.303Z,99.90
2018-10-16T02:41:20.374Z,99.90
2018-10-16T02:51:28.266Z,99.90
2018-10-16T02:56:32.342Z,99.90
2018-10-16T03:01:36.470Z,99.90
2018-10-16T03:11:44.354Z,99.90
2018-10-16T03:21:52.211Z,99.90
2018-10-16T03:26:56.723Z,99.90
2018-10-16T03:32:01.148Z,99.90
2018-10-16T03:37:05.171Z,99.90
2018-10-16T03:42:09.225Z,99.90
2018-10-16T03:47:13.274Z,99.90
2018-10-16T03:57:21.234Z,99.90
2018-10-16T04:02:25.194Z,99.90
2018-10-16T04:37:52.620Z,99.90
2018-10-16T04:42:56.675Z,99.90
2018-10-16T05:03:18.843Z,99.90
2018-10-16T05:18:30.908Z,99.90
2018-10-16T05:28:38.712Z,99.90
2018-10-16T05:33:42.805Z,99.90
2018-10-16T05:48:54.616Z,99.90
2018-10-16T05:59:02.543Z,99.90
2018-10-16T06:04:06.586Z,99.90
2018-10-16T06:19:18.205Z,99.90
2018-10-16T06:29:26.082Z,99.90
2018-10-16T06:39:33.958Z,99.90
2018-10-16T06:49:41.818Z,99.90
2018-10-16T06:54:46.006Z,99.90
2018-10-16T06:59:49.962Z,99.90
2018-10-16T07:15:02.078Z,99.90
2018-10-16T07:20:07.783Z,99.90
2018-10-16T07:25:11.829Z,98.60
2018-10-16T07:55:37.023Z,94.60
2018-10-16T08:10:48.746Z,93.20
2018-10-16T08:15:53.216Z,92.60
2018-10-16T08:31:05.364Z,92.80
2018-10-16T08:41:14.907Z,94.10
2018-10-16T08:51:48.266Z,93.30
2018-10-16T08:56:52.400Z,93.90
2018-10-16T09:07:00.807Z,94.50
2018-10-16T09:12:05.062Z,94.10
2018-10-16T09:22:13.043Z,93.40
2018-10-16T09:27:17.075Z,93.00
2018-10-16T09:32:21.121Z,93.20
2018-10-16T09:37:25.207Z,93.20
2018-10-16T09:42:29.244Z,93.60
2018-10-16T10:02:44.877Z,92.60
2018-10-16T10:12:52.714Z,91.70
2018-10-16T10:17:56.742Z,91.60
2018-10-16T10:23:00.813Z,92.30
2018-10-16T10:28:04.883Z,92.50
2018-10-16T10:33:08.926Z,92.80
2018-10-16T10:38:13.006Z,92.90
2018-10-16T11:28:53.133Z,94.40
2018-10-16T11:44:04.912Z,94.00
2018-10-16T11:54:13.127Z,91.20
2018-10-16T11:59:17.207Z,91.30
2018-10-16T12:09:25.005Z,90.70
2018-10-16T12:14:29.020Z,90.40
2018-10-16T12:19:36.816Z,91.30
2018-10-16T12:34:48.425Z,91.10
2018-10-16T12:44:56.307Z,91.10
2018-10-16T13:05:12.005Z,88.60
2018-10-16T13:10:17.239Z,89.60
2018-10-16T13:35:37.095Z,86.70
2018-10-16T14:16:07.932Z,85.90
2018-10-16T14:51:35.391Z,79.20
2018-10-16T15:06:46.994Z,87.00
2018-10-16T15:11:51.022Z,87.80
2018-10-16T15:37:10.328Z,92.90
2018-10-16T15:42:14.468Z,93.80
2018-10-16T15:47:18.465Z,94.10
2018-10-16T16:07:34.009Z,95.90
2018-10-16T16:12:38.345Z,95.60
2018-10-16T16:22:46.659Z,96.60
2018-10-16T16:27:50.777Z,96.60
2018-10-16T16:32:54.828Z,96.60
2018-10-16T16:37:58.968Z,96.90
2018-10-16T16:43:02.986Z,97.90
2018-10-16T17:23:33.832Z,99.20
2018-10-16T17:28:37.862Z,99.60
2018-10-16T17:38:45.703Z,99.50
2018-10-16T17:43:49.866Z,99.20
2018-10-16T17:48:53.941Z,99.00
2018-10-16T17:53:58.004Z,98.60
2018-10-16T18:04:06.167Z,97.40
2018-10-16T18:09:10.267Z,97.20
2018-10-16T18:19:18.078Z,97.50
2018-10-16T18:34:29.760Z,96.90
2018-10-16T18:49:41.591Z,96.50
2018-10-16T18:59:49.452Z,98.10
2018-10-16T19:25:10.721Z,99.70
2018-10-16T19:35:18.681Z,99.90
2018-10-16T19:45:27.526Z,99.90
2018-10-16T19:50:31.554Z,99.90
2018-10-16T20:00:39.493Z,99.90
2018-10-16T20:10:47.442Z,99.90
2018-10-16T20:25:59.123Z,99.90
2018-10-16T20:56:22.458Z,99.90
2018-10-16T21:11:34.194Z,99.90
2018-10-16T21:16:38.256Z,99.90
2018-10-16T21:37:13.712Z,99.90
2018-10-16T21:42:17.714Z,99.90
2018-10-16T21:47:21.787Z,99.90
2018-10-16T21:52:25.829Z,99.90
2018-10-16T22:02:53.108Z,99.90
2018-10-16T22:07:57.798Z,99.90
2018-10-16T22:13:01.882Z,99.90
2018-10-16T22:23:09.929Z,99.90
2018-10-16T22:28:13.946Z,99.90
2018-10-16T22:33:17.998Z,99.90
2018-10-16T22:38:22.073Z,99.90
2018-10-16T22:48:29.982Z,99.90
2018-10-16T22:58:37.882Z,99.90
2018-10-16T23:08:45.738Z,99.90
2018-10-16T23:13:49.773Z,99.90
2018-10-16T23:23:57.593Z,99.90
2018-10-16T23:34:05.934Z,99.90
2018-10-16T23:44:15.839Z,99.90
2018-10-16T23:49:19.902Z,99.90
2018-10-16T23:54:23.935Z,99.90
2018-10-16T23:59:28.239Z,99.90
